Time;durP1;ratioP1;P1;durP2;ratioP2;P2;SDS_P1;SDS_P2;PMS_P1;PMS_P2;Temp;Humidity;BMP_temperature;BMP_pressure;BME280_temperature;BME280_humidity;BME280_pressure;Samples;Min_cycle;Max_cycle;Signal;HPM_P1;HPM_P2
2023/02/06 00:01:16;;;;;;;82.67;31.93;;;-5.40;99.90;;;;;;5032370;28;20261;-73
2023/02/06 00:03:43;;;;;;;78.30;32.20;;;-5.40;99.90;;;;;;5014264;28;20211;-72
2023/02/06 00:06:10;;;;;;;81.20;32.23;;;-5.40;99.90;;;;;;4992151;28;20561;-78
2023/02/06 00:08:37;;;;;;;82.37;32.10;;;-5.40;99.90;;;;;;5008288;28;20192;-65
2023/02/06 00:11:06;;;;;;;95.67;34.23;;;-5.30;99.90;;;;;;5012319;28;20535;-83
2023/02/06 00:13:34;;;;;;;87.83;33.40;;;-5.40;99.90;;;;;;4995037;28;20204;-69
2023/02/06 00:16:02;;;;;;;89.33;33.97;;;-5.40;99.90;;;;;;4995417;28;20295;-85
2023/02/06 00:18:30;;;;;;;83.53;31.90;;;-5.40;99.90;;;;;;4995224;28;20196;-70
2023/02/06 00:20:57;;;;;;;83.87;33.80;;;-5.40;99.90;;;;;;4994961;28;20200;-74
2023/02/06 00:23:24;;;;;;;84.57;31.47;;;-5.40;99.90;;;;;;4995044;28;20207;-66
2023/02/06 00:25:51;;;;;;;83.60;33.00;;;-5.30;99.90;;;;;;5016688;28;20560;-67
2023/02/06 00:28:18;;;;;;;80.17;31.87;;;-5.40;99.90;;;;;;5003476;28;20689;-71
2023/02/06 00:30:46;;;;;;;84.50;33.33;;;-5.40;99.90;;;;;;5001695;28;20195;-74
2023/02/06 00:33:13;;;;;;;88.57;33.53;;;-5.40;99.90;;;;;;5019111;28;20195;-79
2023/02/06 00:35:40;;;;;;;84.90;33.67;;;-5.30;99.90;;;;;;5018999;28;20240;-70
2023/02/06 00:38:11;;;;;;;87.07;33.57;;;-5.30;99.90;;;;;;5001930;28;20200;-75
2023/02/06 00:40:38;;;;;;;82.33;34.13;;;-5.20;99.90;;;;;;5001354;28;20204;-76
2023/02/06 00:43:05;;;;;;;79.53;32.93;;;-5.20;99.90;;;;;;5018886;28;20195;-73
2023/02/06 00:45:32;;;;;;;82.10;32.57;;;-5.30;99.90;;;;;;5001220;28;20200;-75
2023/02/06 00:47:59;;;;;;;83.47;32.23;;;-5.30;99.90;;;;;;5001377;28;20734;-78
2023/02/06 00:50:26;;;;;;;82.00;32.80;;;-5.40;99.90;;;;;;5001312;28;20205;-79
2023/02/06 00:52:53;;;;;;;83.40;33.37;;;-5.40;99.90;;;;;;4984918;28;20208;-64
2023/02/06 00:55:20;;;;;;;81.33;32.40;;;-5.40;99.90;;;;;;5018738;28;20207;-71
2023/02/06 00:57:59;;;;;;;82.47;33.83;;;-5.30;99.90;;;;;;5001167;28;20214;-74
2023/02/06 01:00:26;;;;;;;84.83;33.23;;;-5.30;99.90;;;;;;5018540;28;20287;-67
2023/02/06 01:02:53;;;;;;;82.87;32.03;;;-5.30;99.90;;;;;;5001313;28;20204;-65
2023/02/06 01:05:20;;;;;;;88.00;33.77;;;-5.30;99.90;;;;;;5001155;28;20204;-73
2023/02/06 01:07:47;;;;;;;85.47;32.83;;;-5.30;99.90;;;;;;5018943;28;20258;-78
2023/02/06 01:10:14;;;;;;;92.90;36.73;;;-5.30;99.90;;;;;;5019081;28;20561;-69
2023/02/06 01:12:41;;;;;;;103.27;36.27;;;-5.40;99.90;;;;;;5001293;28;20216;-73
2023/02/06 01:15:10;;;;;;;96.67;36.97;;;-5.40;99.90;;;;;;5003676;28;20205;-76
2023/02/06 01:17:38;;;;;;;94.83;36.87;;;-5.50;99.90;;;;;;4981606;28;20649;-80
2023/02/06 01:20:08;;;;;;;87.50;35.43;;;-5.50;99.90;;;;;;4999382;28;20196;-69
2023/02/06 01:22:36;;;;;;;94.07;36.23;;;-5.50;99.90;;;;;;4981321;28;20199;-65
2023/02/06 01:25:03;;;;;;;87.47;35.30;;;-5.40;99.90;;;;;;4987580;28;20651;-69
2023/02/06 01:27:30;;;;;;;89.07;34.97;;;-5.30;99.90;;;;;;4998517;28;20519;-64
2023/02/06 01:29:57;;;;;;;84.97;34.37;;;-5.40;99.90;;;;;;4981079;28;20211;-64
2023/02/06 01:32:24;;;;;;;86.07;34.13;;;-5.40;99.90;;;;;;5007293;28;20196;-69
2023/02/06 01:34:51;;;;;;;89.33;34.17;;;-5.60;99.90;;;;;;4988052;28;20309;-64
2023/02/06 01:37:17;;;;;;;84.80;34.43;;;-5.50;99.90;;;;;;4978551;28;20200;-64
2023/02/06 01:39:44;;;;;;;86.30;33.57;;;-5.60;99.90;;;;;;4978472;28;20553;-63
2023/02/06 01:42:12;;;;;;;85.30;34.37;;;-5.50;99.90;;;;;;4996054;28;20197;-75
2023/02/06 01:44:39;;;;;;;85.27;34.33;;;-5.40;99.90;;;;;;4978032;28;20200;-74
2023/02/06 01:47:09;;;;;;;83.67;33.43;;;-5.50;99.90;;;;;;4995662;28;20344;-73
2023/02/06 01:49:48;;;;;;;87.37;33.80;;;-5.50;99.90;;;;;;4978023;28;20200;-72
2023/02/06 01:52:29;;;;;;;88.83;33.70;;;-5.40;99.90;;;;;;4995552;28;20201;-69
2023/02/06 01:55:02;;;;;;;76.70;31.30;;;-5.40;99.90;;;;;;4978652;28;20235;-65
2023/02/06 01:57:30;;;;;;;87.70;34.10;;;-5.40;99.90;;;;;;4978180;28;20197;-69
2023/02/06 02:00:01;;;;;;;81.93;33.93;;;-5.40;99.90;;;;;;4978108;28;20204;-74
2023/02/06 02:02:31;;;;;;;85.47;34.10;;;-5.40;99.90;;;;;;4978326;28;20193;-63
2023/02/06 02:05:00;;;;;;;82.93;33.60;;;-5.30;99.90;;;;;;4977774;28;20699;-73
2023/02/06 02:07:32;;;;;;;84.93;34.07;;;-5.30;99.90;;;;;;4978044;28;20208;-76
2023/02/06 02:09:59;;;;;;;83.73;33.43;;;-5.30;99.90;;;;;;4977792;28;20191;-74
2023/02/06 02:12:25;;;;;;;80.07;34.43;;;-5.50;99.90;;;;;;4995217;28;20227;-68
2023/02/06 02:14:53;;;;;;;86.47;33.87;;;-5.60;99.90;;;;;;4977773;28;20197;-79
2023/02/06 02:17:20;;;;;;;84.47;33.90;;;-5.60;99.90;;;;;;4978319;28;20208;-75
2023/02/06 02:19:56;;;;;;;82.73;33.67;;;-5.50;99.90;;;;;;4977600;28;20259;-74
2023/02/06 02:22:35;;;;;;;85.77;33.93;;;-5.50;99.90;;;;;;4994913;28;20208;-76
2023/02/06 02:25:32;;;;;;;83.63;32.87;;;-5.50;99.90;;;;;;4977715;28;20193;-70
2023/02/06 02:28:23;;;;;;;76.03;31.87;;;-5.40;99.90;;;;;;4977418;28;20239;-74
2023/02/06 02:31:17;;;;;;;84.00;32.40;;;-5.30;99.90;;;;;;4977375;28;20534;-76
2023/02/06 02:34:19;;;;;;;83.97;33.17;;;-5.40;99.90;;;;;;4961560;28;20185;-74
2023/02/06 02:37:02;;;;;;;81.37;30.67;;;-5.40;99.90;;;;;;4995024;28;20224;-73
2023/02/06 02:39:46;;;;;;;74.53;31.47;;;-5.30;99.90;;;;;;4958910;28;20282;-72
2023/02/06 02:42:41;;;;;;;80.53;32.30;;;-5.30;99.90;;;;;;4976718;28;20212;-74
2023/02/06 02:45:23;;;;;;;80.63;31.37;;;-5.30;99.90;;;;;;4971580;28;20309;-76
2023/02/06 02:48:15;;;;;;;76.83;29.67;;;-5.30;99.90;;;;;;4961026;28;20248;-75
2023/02/06 02:50:43;;;;;;;83.27;30.30;;;-5.30;99.90;;;;;;4922483;29;20245;-77
2023/02/06 02:53:12;;;;;;;70.73;29.77;;;-5.40;99.90;;;;;;4937745;29;20208;-77
2023/02/06 02:55:38;;;;;;;69.40;29.00;;;-5.50;99.90;;;;;;4937397;29;20213;-73
2023/02/06 02:58:09;;;;;;;67.80;28.63;;;-5.50;99.90;;;;;;4953492;29;20206;-74
2023/02/06 03:00:42;;;;;;;76.03;30.57;;;-5.50;99.90;;;;;;4937598;29;20339;-72
2023/02/06 03:03:11;;;;;;;73.73;29.97;;;-5.50;99.90;;;;;;4918984;29;20755;-75
2023/02/06 03:05:50;;;;;;;75.63;30.27;;;-5.40;99.90;;;;;;4917609;29;20206;-71
2023/02/06 03:08:27;;;;;;;77.37;30.27;;;-5.30;99.90;;;;;;4932737;29;20234;-74
2023/02/06 03:11:08;;;;;;;76.07;30.87;;;-5.30;99.90;;;;;;4917537;29;20206;-72
2023/02/06 03:14:20;;;;;;;71.03;28.53;;;-5.40;99.90;;;;;;4933888;29;20206;-72
2023/02/06 03:16:57;;;;;;;74.10;28.80;;;-5.50;99.90;;;;;;4825086;29;20214;-79
2023/02/06 03:19:30;;;;;;;75.90;28.70;;;-5.40;99.90;;;;;;4825244;29;20202;-72
2023/02/06 03:21:59;;;;;;;78.93;29.63;;;-5.50;99.90;;;;;;4840224;29;20217;-77
2023/02/06 03:24:31;;;;;;;73.37;30.10;;;-5.50;99.90;;;;;;4825445;29;20627;-74
2023/02/06 03:27:01;;;;;;;75.60;30.33;;;-5.50;99.90;;;;;;4834947;29;20562;-80
2023/02/06 03:29:31;;;;;;;75.57;30.93;;;-5.40;99.90;;;;;;4895803;29;20204;-74
2023/02/06 03:32:29;;;;;;;80.27;30.17;;;-5.50;99.90;;;;;;4896046;29;20661;-81
2023/02/06 03:35:05;;;;;;;72.93;30.27;;;-5.50;99.90;;;;;;4859051;29;20221;-79
2023/02/06 03:37:36;;;;;;;71.07;29.47;;;-5.50;99.90;;;;;;4859152;29;20288;-78
2023/02/06 03:40:05;;;;;;;73.40;29.70;;;-5.60;99.90;;;;;;4846723;29;20221;-75
2023/02/06 03:42:33;;;;;;;72.50;29.73;;;-5.70;99.90;;;;;;4877499;29;20197;-74
2023/02/06 03:45:05;;;;;;;85.67;31.23;;;-5.70;99.90;;;;;;4861788;29;20197;-74
2023/02/06 03:47:35;;;;;;;83.00;31.03;;;-5.80;99.90;;;;;;4892413;29;20697;-81
2023/02/06 03:50:05;;;;;;;84.90;30.50;;;-5.70;99.90;;;;;;4880476;29;20215;-83
2023/02/06 03:52:38;;;;;;;77.07;29.40;;;-5.70;99.90;;;;;;4893062;28;20209;-80
2023/02/06 03:55:12;;;;;;;75.13;31.20;;;-5.70;99.90;;;;;;4972234;28;20247;-83
2023/02/06 03:57:42;;;;;;;72.43;29.80;;;-5.80;99.90;;;;;;4972030;28;20323;-81
2023/02/06 04:00:10;;;;;;;78.27;30.07;;;-5.80;99.90;;;;;;4954992;28;20213;-78
2023/02/06 04:02:38;;;;;;;77.03;30.90;;;-5.90;99.90;;;;;;4971410;28;20198;-73
2023/02/06 04:05:08;;;;;;;78.87;31.93;;;-5.90;99.90;;;;;;4969754;28;20228;-85
2023/02/06 04:07:44;;;;;;;75.13;30.33;;;-5.80;99.90;;;;;;4933463;28;20376;-74
2023/02/06 04:10:11;;;;;;;82.57;32.13;;;-5.90;99.90;;;;;;4961537;28;20301;-71
2023/02/06 04:12:38;;;;;;;75.43;31.37;;;-6.00;99.90;;;;;;4979474;28;20188;-70
2023/02/06 04:15:05;;;;;;;89.27;31.60;;;-6.10;99.90;;;;;;5002293;28;20200;-74
2023/02/06 04:17:32;;;;;;;78.53;31.97;;;-6.20;99.90;;;;;;4983927;28;20658;-71
2023/02/06 04:20:19;;;;;;;86.27;31.17;;;-6.10;99.90;;;;;;4994864;28;20197;-80
2023/02/06 04:22:46;;;;;;;82.90;31.27;;;-6.10;99.90;;;;;;4995021;28;20200;-79
2023/02/06 04:25:13;;;;;;;87.67;32.03;;;-6.10;99.90;;;;;;4978693;28;20203;-78
2023/02/06 04:27:40;;;;;;;84.03;30.80;;;-6.20;99.90;;;;;;4979247;28;20220;-84
2023/02/06 04:30:08;;;;;;;84.87;30.93;;;-6.20;99.90;;;;;;4987460;28;20216;-83
2023/02/06 04:32:38;;;;;;;86.40;31.83;;;-6.30;99.90;;;;;;4993067;28;20567;-84
2023/02/06 04:35:05;;;;;;;93.07;32.70;;;-6.30;99.90;;;;;;4995665;28;20196;-83
2023/02/06 04:37:31;;;;;;;91.13;33.43;;;-6.40;99.90;;;;;;4994209;28;20307;-81
2023/02/06 04:39:58;;;;;;;103.77;34.57;;;-6.30;99.90;;;;;;4993282;28;20655;-82
2023/02/06 04:42:25;;;;;;;106.43;36.13;;;-6.50;99.90;;;;;;4993236;28;20628;-84
2023/02/06 04:44:54;;;;;;;108.77;38.43;;;-6.60;99.90;;;;;;4992271;28;20216;-78
2023/02/06 04:47:20;;;;;;;104.37;37.57;;;-6.50;99.90;;;;;;5007812;28;20321;-85
2023/02/06 04:49:47;;;;;;;105.00;38.17;;;-6.60;99.90;;;;;;5012801;28;20214;-79
2023/02/06 04:55:00;;;;;;;99.13;37.27;;;-6.40;99.90;;;;;;5121790;23;20297;-79
2023/02/06 04:57:27;;;;;;;107.13;38.97;;;-6.40;99.90;;;;;;5012386;28;20199;-73
2023/02/06 04:59:53;;;;;;;101.37;38.20;;;-6.40;99.90;;;;;;5027909;28;20690;-72
2023/02/06 05:02:20;;;;;;;99.93;36.83;;;-6.40;99.90;;;;;;5011815;28;20200;-72
2023/02/06 05:04:47;;;;;;;96.53;34.07;;;-6.60;99.90;;;;;;5013448;28;20242;-73
2023/02/06 05:07:14;;;;;;;98.77;34.87;;;-6.50;99.90;;;;;;5010328;28;20650;-72
2023/02/06 05:09:41;;;;;;;96.27;34.60;;;-6.50;99.90;;;;;;5011095;28;20196;-71
2023/02/06 05:12:08;;;;;;;87.87;32.93;;;-6.50;99.90;;;;;;5011735;28;20204;-70
2023/02/06 05:14:34;;;;;;;92.13;32.83;;;-6.50;99.90;;;;;;5014809;28;20204;-70
2023/02/06 05:17:01;;;;;;;80.00;30.70;;;-6.50;99.90;;;;;;5014493;28;20195;-73
2023/02/06 05:19:28;;;;;;;80.80;29.30;;;-6.70;99.90;;;;;;5015334;28;20209;-71
2023/02/06 05:21:55;;;;;;;81.40;29.10;;;-6.70;99.90;;;;;;5015917;28;20206;-72
2023/02/06 05:24:22;;;;;;;74.83;27.57;;;-6.80;99.90;;;;;;5014720;28;20202;-71
2023/02/06 05:26:49;;;;;;;87.80;30.17;;;-6.90;99.90;;;;;;5016065;28;20663;-71
2023/02/06 05:29:15;;;;;;;81.67;29.43;;;-6.90;99.90;;;;;;5015153;28;20665;-72
2023/02/06 05:31:43;;;;;;;81.40;29.10;;;-6.80;99.90;;;;;;5015218;28;20206;-80
2023/02/06 05:34:10;;;;;;;90.70;29.77;;;-6.80;99.90;;;;;;5014260;28;20204;-72
2023/02/06 05:36:37;;;;;;;81.57;28.87;;;-7.10;99.90;;;;;;5014870;28;20206;-72
2023/02/06 05:39:04;;;;;;;93.83;30.83;;;-7.10;99.90;;;;;;5014954;28;20195;-71
2023/02/06 05:41:31;;;;;;;88.63;30.40;;;-6.90;99.90;;;;;;5014116;28;20203;-82
2023/02/06 05:43:58;;;;;;;90.57;31.63;;;-7.00;99.90;;;;;;5015537;28;20196;-73
2023/02/06 05:46:25;;;;;;;108.43;30.60;;;-7.00;99.90;;;;;;5014217;28;20196;-71
2023/02/06 05:48:52;;;;;;;103.47;28.57;;;-7.00;99.90;;;;;;5014009;28;20783;-71
2023/02/06 05:51:18;;;;;;;84.67;27.37;;;-6.90;99.90;;;;;;5014290;28;20210;-71
2023/02/06 05:53:45;;;;;;;87.23;26.53;;;-6.90;99.90;;;;;;5015229;28;20230;-71
2023/02/06 05:56:12;;;;;;;79.97;25.20;;;-6.90;99.90;;;;;;4998014;28;20204;-73
2023/02/06 05:58:39;;;;;;;90.17;26.93;;;-6.80;99.90;;;;;;5014221;28;20204;-71
2023/02/06 06:01:06;;;;;;;75.00;26.03;;;-6.80;99.90;;;;;;5014859;28;20213;-73
2023/02/06 06:03:32;;;;;;;91.00;26.00;;;-6.80;99.90;;;;;;5013813;28;20231;-73
2023/02/06 06:05:59;;;;;;;86.93;26.57;;;-6.80;99.90;;;;;;5013776;28;20611;-71
2023/02/06 06:08:26;;;;;;;78.83;26.07;;;-6.80;99.90;;;;;;5014407;28;20227;-80
2023/02/06 06:10:53;;;;;;;73.00;25.23;;;-6.70;99.90;;;;;;4998223;28;20184;-70
2023/02/06 06:13:20;;;;;;;82.73;27.30;;;-6.70;99.90;;;;;;5013822;28;20283;-74
2023/02/06 06:15:51;;;;;;;82.80;25.67;;;-6.80;99.90;;;;;;5012512;28;20694;-81
2023/02/06 06:18:19;;;;;;;76.87;26.00;;;-6.70;99.90;;;;;;5013864;28;20258;-83
2023/02/06 06:20:47;;;;;;;82.50;27.17;;;-6.60;99.90;;;;;;5014260;28;20204;-83
2023/02/06 06:23:14;;;;;;;78.73;25.20;;;-6.60;99.90;;;;;;5013372;28;20199;-76
2023/02/06 06:25:41;;;;;;;91.30;25.33;;;-6.70;99.90;;;;;;5013588;28;20203;-80
2023/02/06 06:28:08;;;;;;;91.10;25.80;;;-6.60;99.90;;;;;;5013669;28;20236;-78
2023/02/06 06:30:36;;;;;;;78.03;25.50;;;-6.60;99.90;;;;;;5013693;28;20200;-82
2023/02/06 06:33:03;;;;;;;78.83;25.23;;;-6.60;99.90;;;;;;5012693;28;20211;-83
2023/02/06 06:35:32;;;;;;;71.87;24.60;;;-6.60;99.90;;;;;;5013372;28;20203;-82
2023/02/06 06:37:59;;;;;;;79.27;26.40;;;-6.50;99.90;;;;;;5013859;28;20188;-81
2023/02/06 06:40:26;;;;;;;82.37;27.03;;;-6.50;99.90;;;;;;5014316;28;20192;-73
2023/02/06 06:42:53;;;;;;;74.97;26.30;;;-6.50;99.90;;;;;;4997023;28;20215;-74
2023/02/06 06:45:22;;;;;;;85.47;27.53;;;-6.50;99.90;;;;;;5011950;28;20192;-70
2023/02/06 06:47:49;;;;;;;86.33;28.13;;;-6.40;99.90;;;;;;5012623;28;20278;-69
2023/02/06 06:50:16;;;;;;;92.77;29.93;;;-6.40;99.90;;;;;;5022965;28;20193;-69
2023/02/06 06:52:43;;;;;;;89.03;28.27;;;-6.40;99.90;;;;;;5022697;28;20203;-70
2023/02/06 06:55:10;;;;;;;85.40;26.83;;;-6.40;99.90;;;;;;5031941;28;20266;-74
2023/02/06 06:57:37;;;;;;;89.63;27.67;;;-6.30;99.90;;;;;;5036308;28;20196;-72
2023/02/06 07:00:04;;;;;;;77.57;27.00;;;-6.30;99.90;;;;;;5033046;28;20206;-76
2023/02/06 07:02:31;;;;;;;84.87;27.30;;;-6.20;99.90;;;;;;5033205;28;20202;-80
2023/02/06 07:04:59;;;;;;;81.30;26.50;;;-6.10;99.90;;;;;;5034781;28;20270;-75
2023/02/06 07:07:26;;;;;;;78.37;26.13;;;-6.10;99.90;;;;;;5032613;28;20195;-73
2023/02/06 07:09:53;;;;;;;86.10;26.97;;;-6.00;99.90;;;;;;5032593;28;20362;-72
2023/02/06 07:12:19;;;;;;;78.33;26.80;;;-6.00;99.90;;;;;;5033870;28;20196;-73
2023/02/06 07:14:46;;;;;;;81.70;26.33;;;-5.90;99.90;;;;;;5032230;28;20649;-71
2023/02/06 07:17:13;;;;;;;81.17;27.37;;;-5.70;99.90;;;;;;5033133;28;20206;-72
2023/02/06 07:19:40;;;;;;;84.00;26.27;;;-5.70;99.90;;;;;;5015962;28;20196;-75
2023/02/06 07:22:07;;;;;;;85.03;26.93;;;-5.60;99.90;;;;;;5012960;28;20196;-74
2023/02/06 07:24:34;;;;;;;83.30;26.60;;;-5.70;99.90;;;;;;5012107;28;20235;-73
2023/02/06 07:27:04;;;;;;;82.07;26.47;;;-5.70;99.90;;;;;;5013662;28;20203;-74
2023/02/06 07:29:33;;;;;;;81.50;27.37;;;-5.40;99.90;;;;;;5012440;28;20228;-73
2023/02/06 07:32:00;;;;;;;91.00;27.13;;;-5.20;99.90;;;;;;5012187;28;20204;-73
2023/02/06 07:34:27;;;;;;;80.57;27.60;;;-5.10;99.90;;;;;;5011607;28;20200;-70
2023/02/06 07:36:58;;;;;;;85.93;27.23;;;-5.20;99.90;;;;;;5011963;28;20609;-74
2023/02/06 07:39:26;;;;;;;85.07;26.70;;;-5.20;99.90;;;;;;5013910;28;20192;-75
2023/02/06 07:41:53;;;;;;;78.37;27.60;;;-5.00;99.90;;;;;;5011824;28;20635;-69
2023/02/06 07:44:20;;;;;;;86.33;27.70;;;-4.80;99.90;;;;;;5012026;28;20267;-70
2023/02/06 07:46:46;;;;;;;82.87;27.57;;;-4.70;99.90;;;;;;5012191;28;20196;-72
2023/02/06 07:49:14;;;;;;;80.73;28.00;;;-4.60;99.90;;;;;;5011729;28;20673;-71
2023/02/06 07:51:43;;;;;;;88.67;29.43;;;-4.60;99.90;;;;;;5011904;28;20208;-71
2023/02/06 07:54:11;;;;;;;94.20;29.07;;;-4.60;99.90;;;;;;5011564;28;20544;-71
2023/02/06 07:56:43;;;;;;;92.43;29.37;;;-4.90;99.90;;;;;;4996242;28;20193;-71
2023/02/06 07:59:10;;;;;;;86.60;29.07;;;-5.10;99.90;;;;;;5012182;28;20204;-74
2023/02/06 08:01:37;;;;;;;90.30;30.57;;;-4.90;99.90;;;;;;5012105;28;20650;-75
2023/02/06 08:04:04;;;;;;;92.17;30.10;;;-4.90;99.90;;;;;;5011978;28;20219;-75
2023/02/06 08:06:31;;;;;;;88.27;29.47;;;-4.70;99.90;;;;;;5011905;28;20193;-75
2023/02/06 08:09:04;;;;;;;86.43;30.63;;;-4.60;99.90;;;;;;5012112;28;20236;-75
2023/02/06 08:11:32;;;;;;;78.83;28.90;;;-4.30;99.90;;;;;;5012064;28;20203;-76
2023/02/06 08:14:00;;;;;;;81.00;28.13;;;-4.30;99.90;;;;;;5013622;28;20200;-76
2023/02/06 08:16:27;;;;;;;74.63;26.77;;;-4.20;99.90;;;;;;5011455;28;20682;-71
2023/02/06 08:18:54;;;;;;;77.67;26.47;;;-3.90;99.90;;;;;;5011764;28;20708;-74
2023/02/06 08:21:23;;;;;;;72.53;25.43;;;-3.70;99.90;;;;;;5011221;28;20197;-72
2023/02/06 08:23:57;;;;;;;72.57;25.33;;;-3.70;99.90;;;;;;4995337;28;20627;-73
2023/02/06 08:26:26;;;;;;;75.43;27.00;;;-3.50;99.90;;;;;;5011782;28;20192;-71
2023/02/06 08:28:54;;;;;;;73.93;26.43;;;-3.40;99.90;;;;;;5011575;28;20220;-75
2023/02/06 08:31:27;;;;;;;64.93;25.23;;;-3.10;99.90;;;;;;5012440;28;20287;-69
2023/02/06 08:33:55;;;;;;;64.50;24.30;;;-3.10;99.90;;;;;;5011117;28;20283;-72
2023/02/06 08:36:23;;;;;;;69.63;23.20;;;-3.10;99.90;;;;;;5011198;28;20651;-71
2023/02/06 08:38:51;;;;;;;60.20;22.87;;;-2.90;99.90;;;;;;5012612;28;20721;-73
2023/02/06 08:41:19;;;;;;;68.47;22.90;;;-2.90;99.90;;;;;;5011473;28;20295;-70
2023/02/06 08:43:47;;;;;;;65.63;23.97;;;-2.90;99.90;;;;;;5012392;28;20196;-71
2023/02/06 08:46:15;;;;;;;64.83;24.70;;;-2.40;99.90;;;;;;5012341;28;20191;-70
2023/02/06 08:48:44;;;;;;;66.90;23.77;;;-2.40;99.90;;;;;;5014879;28;20243;-70
2023/02/06 08:51:11;;;;;;;62.83;23.40;;;-2.20;99.90;;;;;;5015098;28;20557;-71
2023/02/06 08:53:38;;;;;;;66.33;24.77;;;-2.00;99.90;;;;;;5014507;28;20287;-72
2023/02/06 08:56:11;;;;;;;75.37;25.30;;;-1.70;99.90;;;;;;5016013;28;20194;-73
2023/02/06 08:58:38;;;;;;;68.13;25.43;;;-1.80;99.90;;;;;;5014866;28;20235;-72
2023/02/06 09:01:12;;;;;;;66.53;25.27;;;-1.50;99.90;;;;;;5014744;28;20205;-75
2023/02/06 09:03:40;;;;;;;64.17;25.20;;;-1.30;99.90;;;;;;5013757;28;20228;-71
2023/02/06 09:06:08;;;;;;;61.77;23.30;;;-1.10;99.90;;;;;;5016036;28;20199;-69
2023/02/06 09:08:38;;;;;;;63.73;24.40;;;-1.20;99.90;;;;;;5015967;28;20717;-79
2023/02/06 09:11:14;;;;;;;68.27;24.57;;;-1.00;99.90;;;;;;4998773;28;20541;-72
2023/02/06 09:13:42;;;;;;;65.33;24.20;;;-1.00;99.90;;;;;;5015705;28;20219;-74
2023/02/06 09:16:10;;;;;;;64.87;24.40;;;-1.10;99.90;;;;;;5014619;28;20207;-72
2023/02/06 09:18:38;;;;;;;63.30;23.50;;;-1.20;99.90;;;;;;5014463;28;20222;-72
2023/02/06 09:21:10;;;;;;;64.20;24.77;;;-1.10;99.90;;;;;;5015016;28;20209;-72
2023/02/06 09:23:44;;;;;;;62.80;23.30;;;-1.00;99.90;;;;;;5014486;28;20188;-74
2023/02/06 09:26:14;;;;;;;61.37;23.20;;;-1.10;99.90;;;;;;5014211;28;20285;-74
2023/02/06 09:28:40;;;;;;;64.60;24.10;;;-0.90;99.90;;;;;;5014320;28;20674;-76
2023/02/06 09:31:08;;;;;;;61.17;23.77;;;-1.00;99.90;;;;;;5015999;28;20207;-72
2023/02/06 09:33:36;;;;;;;62.57;23.90;;;-0.80;99.90;;;;;;5014510;28;20558;-78
2023/02/06 09:36:06;;;;;;;66.03;25.13;;;-0.80;99.90;;;;;;5014196;28;20202;-72
2023/02/06 09:38:34;;;;;;;66.27;24.57;;;-0.80;99.90;;;;;;5014229;28;20197;-73
2023/02/06 09:41:05;;;;;;;61.77;23.83;;;-0.90;99.90;;;;;;5013926;28;20208;-73
2023/02/06 09:43:33;;;;;;;63.47;24.20;;;-0.80;99.90;;;;;;5014301;28;20218;-75
2023/02/06 09:46:03;;;;;;;60.80;22.37;;;-0.70;99.90;;;;;;5013945;28;20196;-73
2023/02/06 09:48:35;;;;;;;63.73;22.73;;;-0.90;99.90;;;;;;5014065;28;20228;-73
2023/02/06 09:51:24;;;;;;;57.47;23.27;;;-1.00;99.90;;;;;;5014018;28;20204;-74
2023/02/06 09:54:17;;;;;;;65.23;24.20;;;-1.30;99.90;;;;;;5013797;28;20237;-72
2023/02/06 09:56:59;;;;;;;63.13;24.77;;;-1.30;99.90;;;;;;5013916;28;20200;-72
2023/02/06 09:59:45;;;;;;;65.53;25.03;;;-1.00;99.90;;;;;;5014537;28;20192;-71
2023/02/06 10:02:21;;;;;;;59.37;23.87;;;-0.90;99.90;;;;;;4998037;28;20286;-73
2023/02/06 10:05:21;;;;;;;65.10;24.60;;;-1.00;99.90;;;;;;5013523;28;20220;-73
2023/02/06 10:08:00;;;;;;;62.53;24.33;;;-0.90;99.90;;;;;;4994148;28;20211;-73
2023/02/06 10:10:54;;;;;;;68.97;24.60;;;-0.60;99.90;;;;;;5005112;28;20233;-73
2023/02/06 10:13:49;;;;;;;61.90;23.40;;;-0.60;99.90;;;;;;5013817;28;20206;-73
2023/02/06 10:16:38;;;;;;;63.43;24.27;;;-0.30;99.90;;;;;;5014689;28;20253;-73
2023/02/06 10:19:19;;;;;;;67.07;24.50;;;-0.10;99.90;;;;;;5014749;28;20221;-73
2023/02/06 10:22:12;;;;;;;62.13;24.17;;;0.00;99.90;;;;;;4997178;28;20208;-70
2023/02/06 10:25:14;;;;;;;61.27;24.60;;;0.50;99.90;;;;;;5013081;28;20203;-73
2023/02/06 10:27:44;;;;;;;67.30;25.00;;;0.60;99.90;;;;;;5013607;28;20192;-73
2023/02/06 10:30:21;;;;;;;62.47;25.63;;;0.70;99.90;;;;;;5014843;28;20231;-73
2023/02/06 10:32:58;;;;;;;63.33;25.53;;;0.80;99.90;;;;;;5014449;28;20215;-73
2023/02/06 10:35:38;;;;;;;63.77;25.87;;;1.00;99.90;;;;;;5012969;28;20203;-74
2023/02/06 10:38:11;;;;;;;60.30;24.47;;;1.50;99.90;;;;;;5013121;28;20210;-74
2023/02/06 10:41:04;;;;;;;65.87;25.63;;;2.00;99.90;;;;;;5012963;28;20185;-73
2023/02/06 10:43:46;;;;;;;64.97;25.83;;;2.20;99.90;;;;;;5011772;28;20205;-72
2023/02/06 10:46:35;;;;;;;60.90;25.50;;;1.90;99.90;;;;;;5012750;28;20644;-73
2023/02/06 10:49:10;;;;;;;66.90;25.77;;;1.60;99.90;;;;;;5013028;28;20595;-74
2023/02/06 10:51:44;;;;;;;56.10;22.93;;;1.40;99.90;;;;;;5012649;28;20298;-72
2023/02/06 10:54:34;;;;;;;63.67;25.37;;;1.60;99.90;;;;;;5012475;28;20247;-74
2023/02/06 10:57:01;;;;;;;61.63;24.73;;;1.60;99.90;;;;;;4986626;28;20652;-74
2023/02/06 10:59:37;;;;;;;63.00;24.77;;;1.70;99.90;;;;;;5013731;28;20275;-72
2023/02/06 11:02:32;;;;;;;60.27;25.07;;;1.60;99.90;;;;;;5012689;28;20291;-73
2023/02/06 11:07:31;;;;;;;56.87;23.53;;;2.00;99.90;;;;;;4973114;28;20288;-74
2023/02/06 11:09:58;;;;;;;58.90;23.57;;;2.00;99.90;;;;;;4957013;28;20316;-73
2023/02/06 11:12:38;;;;;;;61.40;24.77;;;1.90;99.90;;;;;;4974654;28;20193;-73
2023/02/06 11:15:18;;;;;;;60.83;24.23;;;1.60;99.90;;;;;;4974679;28;20217;-72
2023/02/06 11:17:45;;;;;;;60.90;24.70;;;1.60;99.90;;;;;;4941123;28;20215;-72
2023/02/06 11:20:28;;;;;;;59.87;24.07;;;1.60;99.90;;;;;;4957018;28;20212;-73
2023/02/06 11:22:55;;;;;;;58.37;24.03;;;1.60;99.90;;;;;;4957125;28;20201;-73
2023/02/06 11:25:30;;;;;;;59.17;23.90;;;1.30;99.90;;;;;;4956700;28;20208;-74
2023/02/06 11:28:04;;;;;;;53.37;23.23;;;1.50;99.90;;;;;;4956896;28;20558;-72
2023/02/06 11:30:35;;;;;;;55.93;24.43;;;1.70;99.90;;;;;;4941100;28;20228;-73
2023/02/06 11:33:35;;;;;;;58.47;23.47;;;1.60;99.90;;;;;;4956798;28;20217;-74
2023/02/06 11:36:04;;;;;;;60.57;23.83;;;1.80;99.90;;;;;;4942209;28;20213;-72
2023/02/06 11:38:31;;;;;;;58.07;23.10;;;1.50;99.90;;;;;;4956751;28;20204;-74
2023/02/06 11:41:17;;;;;;;57.27;24.37;;;1.70;99.90;;;;;;4956734;28;20205;-73
2023/02/06 11:43:55;;;;;;;57.40;23.47;;;1.60;99.90;;;;;;4956574;28;20734;-73
2023/02/06 11:46:42;;;;;;;55.90;22.70;;;1.50;99.90;;;;;;4956523;28;20194;-73
2023/02/06 11:49:17;;;;;;;49.07;21.80;;;1.90;99.90;;;;;;4956018;28;20606;-72
2023/02/06 11:51:48;;;;;;;49.67;21.43;;;2.30;99.90;;;;;;4956538;28;20201;-72
2023/02/06 11:54:27;;;;;;;51.43;20.40;;;3.10;99.90;;;;;;4956630;28;20200;-73
2023/02/06 11:57:06;;;;;;;44.03;19.87;;;3.90;99.90;;;;;;4955987;28;20206;-72
2023/02/06 11:59:35;;;;;;;44.47;18.93;;;4.60;99.90;;;;;;4937258;29;20213;-72
2023/02/06 12:02:26;;;;;;;40.07;16.97;;;5.20;99.90;;;;;;4943742;28;20206;-72
2023/02/06 12:05:15;;;;;;;38.53;16.30;;;5.60;99.90;;;;;;4958824;28;20237;-71
2023/02/06 12:07:51;;;;;;;36.37;16.80;;;4.80;99.90;;;;;;4953433;29;20212;-73
2023/02/06 12:10:20;;;;;;;38.47;16.63;;;4.40;99.90;;;;;;4954174;28;20221;-75
2023/02/06 12:12:59;;;;;;;36.20;15.60;;;4.10;99.90;;;;;;4952879;29;20645;-73
2023/02/06 12:15:41;;;;;;;35.37;15.50;;;3.30;99.90;;;;;;4954006;28;20568;-73
2023/02/06 12:18:22;;;;;;;33.47;15.90;;;2.70;99.90;;;;;;4954444;28;20205;-72
2023/02/06 12:21:00;;;;;;;34.83;15.33;;;2.00;99.90;;;;;;4952466;28;20190;-74
2023/02/06 12:23:32;;;;;;;39.07;16.33;;;1.60;99.90;;;;;;4953038;29;20674;-73
2023/02/06 12:26:03;;;;;;;38.83;15.63;;;1.30;99.90;;;;;;4952820;29;20206;-70
2023/02/06 12:28:44;;;;;;;34.73;16.27;;;1.10;99.90;;;;;;4952719;29;20676;-70
2023/02/06 12:31:35;;;;;;;40.70;16.73;;;1.20;99.90;;;;;;4937299;29;20234;-70
2023/02/06 12:34:55;;;;;;;38.53;15.93;;;1.40;99.90;;;;;;4936713;29;20198;-72
2023/02/06 12:37:55;;;;;;;36.87;15.73;;;1.70;99.90;;;;;;4860674;29;20697;-71
2023/02/06 12:40:57;;;;;;;39.87;16.57;;;1.70;99.90;;;;;;4860688;29;20193;-73
2023/02/06 12:43:26;;;;;;;44.00;16.80;;;1.50;99.90;;;;;;4860851;29;20204;-75
2023/02/06 12:46:00;;;;;;;42.27;17.60;;;1.50;99.90;;;;;;4860143;29;20280;-74
2023/02/06 12:48:36;;;;;;;39.87;17.73;;;1.70;99.90;;;;;;4875995;29;20204;-74
2023/02/06 12:51:15;;;;;;;41.87;17.10;;;1.70;99.90;;;;;;4874688;29;20221;-70
2023/02/06 12:53:55;;;;;;;48.27;19.07;;;1.90;99.90;;;;;;4869156;29;20199;-71
2023/02/06 12:56:46;;;;;;;42.27;18.30;;;1.80;99.90;;;;;;4874487;29;20211;-73
2023/02/06 12:59:43;;;;;;;49.50;19.17;;;1.90;99.90;;;;;;4857314;29;20214;-73